sensor_id;sensor_type;location;lat;lon;timestamp;P1;durP1;ratioP1;P2;durP2;ratioP2
34134;SDS011;20410;55.578;12.968;2023-12-14T00:00:34;5.07;;;4.57;;
34134;SDS011;20410;55.578;12.968;2023-12-14T00:02:59;5.60;;;4.10;;
34134;SDS011;20410;55.578;12.968;2023-12-14T00:05:25;5.33;;;4.47;;
34134;SDS011;20410;55.578;12.968;2023-12-14T00:07:51;5.50;;;4.87;;
34134;SDS011;20410;55.578;12.968;2023-12-14T00:10:16;5.83;;;5.23;;
34134;SDS011;20410;55.578;12.968;2023-12-14T00:12:44;5.37;;;4.63;;
34134;SDS011;20410;55.578;12.968;2023-12-14T00:15:10;5.30;;;4.80;;
34134;SDS011;20410;55.578;12.968;2023-12-14T00:17:36;4.90;;;4.50;;
34134;SDS011;20410;55.578;12.968;2023-12-14T00:20:01;5.27;;;4.50;;
34134;SDS011;20410;55.578;12.968;2023-12-14T00:22:28;6.83;;;5.00;;
34134;SDS011;20410;55.578;12.968;2023-12-14T00:24:53;5.13;;;4.63;;
34134;SDS011;20410;55.578;12.968;2023-12-14T00:27:19;5.40;;;4.63;;
34134;SDS011;20410;55.578;12.968;2023-12-14T00:29:45;6.17;;;5.27;;
34134;SDS011;20410;55.578;12.968;2023-12-14T00:32:11;5.10;;;4.60;;
34134;SDS011;20410;55.578;12.968;2023-12-14T00:34:36;4.57;;;4.17;;
34134;SDS011;20410;55.578;12.968;2023-12-14T00:37:02;5.03;;;4.53;;
34134;SDS011;20410;55.578;12.968;2023-12-14T00:39:27;4.77;;;4.27;;
34134;SDS011;20410;55.578;12.968;2023-12-14T00:41:53;5.80;;;4.90;;
34134;SDS011;20410;55.578;12.968;2023-12-14T00:44:18;5.70;;;5.10;;
34134;SDS011;20410;55.578;12.968;2023-12-14T00:46:44;4.87;;;4.30;;
34134;SDS011;20410;55.578;12.968;2023-12-14T00:49:09;5.40;;;4.53;;
34134;SDS011;20410;55.578;12.968;2023-12-14T00:51:35;5.13;;;4.63;;
34134;SDS011;20410;55.578;12.968;2023-12-14T00:54:02;4.77;;;4.27;;
34134;SDS011;20410;55.578;12.968;2023-12-14T00:56:28;4.87;;;4.33;;
34134;SDS011;20410;55.578;12.968;2023-12-14T00:58:53;4.53;;;4.13;;
34134;SDS011;20410;55.578;12.968;2023-12-14T01:01:19;4.80;;;4.40;;
34134;SDS011;20410;55.578;12.968;2023-12-14T01:03:44;4.97;;;4.50;;
34134;SDS011;20410;55.578;12.968;2023-12-14T01:06:10;5.07;;;4.57;;
34134;SDS011;20410;55.578;12.968;2023-12-14T01:08:36;4.50;;;4.10;;
34134;SDS011;20410;55.578;12.968;2023-12-14T01:11:01;4.53;;;4.13;;
34134;SDS011;20410;55.578;12.968;2023-12-14T01:13:27;4.90;;;4.37;;
34134;SDS011;20410;55.578;12.968;2023-12-14T01:15:52;5.33;;;4.83;;
34134;SDS011;20410;55.578;12.968;2023-12-14T01:18:18;5.00;;;4.60;;
34134;SDS011;20410;55.578;12.968;2023-12-14T01:20:43;4.90;;;4.40;;
34134;SDS011;20410;55.578;12.968;2023-12-14T01:23:09;4.60;;;4.20;;
34134;SDS011;20410;55.578;12.968;2023-12-14T01:25:35;4.73;;;4.33;;
34134;SDS011;20410;55.578;12.968;2023-12-14T01:28:01;5.10;;;4.60;;
34134;SDS011;20410;55.578;12.968;2023-12-14T01:30:27;5.40;;;4.90;;
34134;SDS011;20410;55.578;12.968;2023-12-14T01:32:52;5.63;;;5.13;;
34134;SDS011;20410;55.578;12.968;2023-12-14T01:35:18;4.53;;;4.13;;
34134;SDS011;20410;55.578;12.968;2023-12-14T01:37:43;5.47;;;4.57;;
34134;SDS011;20410;55.578;12.968;2023-12-14T01:40:09;4.83;;;4.27;;
34134;SDS011;20410;55.578;12.968;2023-12-14T01:42:35;5.03;;;4.50;;
34134;SDS011;20410;55.578;12.968;2023-12-14T01:45:00;4.17;;;3.77;;
34134;SDS011;20410;55.578;12.968;2023-12-14T01:47:26;4.97;;;4.07;;
34134;SDS011;20410;55.578;12.968;2023-12-14T01:49:51;4.70;;;4.20;;
34134;SDS011;20410;55.578;12.968;2023-12-14T01:52:17;4.80;;;4.30;;
34134;SDS011;20410;55.578;12.968;2023-12-14T01:54:42;5.20;;;4.70;;
34134;SDS011;20410;55.578;12.968;2023-12-14T01:57:08;5.50;;;4.87;;
34134;SDS011;20410;55.578;12.968;2023-12-14T01:59:33;5.57;;;5.07;;
34134;SDS011;20410;55.578;12.968;2023-12-14T02:01:59;5.77;;;4.97;;
34134;SDS011;20410;55.578;12.968;2023-12-14T02:04:26;4.93;;;4.53;;
34134;SDS011;20410;55.578;12.968;2023-12-14T02:06:51;5.90;;;4.50;;
34134;SDS011;20410;55.578;12.968;2023-12-14T02:09:17;5.47;;;4.47;;
34134;SDS011;20410;55.578;12.968;2023-12-14T02:11:43;5.17;;;4.67;;
34134;SDS011;20410;55.578;12.968;2023-12-14T02:14:09;5.10;;;4.60;;
34134;SDS011;20410;55.578;12.968;2023-12-14T02:16:35;5.10;;;4.60;;
34134;SDS011;20410;55.578;12.968;2023-12-14T02:19:03;5.37;;;4.83;;
34134;SDS011;20410;55.578;12.968;2023-12-14T02:21:29;5.50;;;4.70;;
34134;SDS011;20410;55.578;12.968;2023-12-14T02:23:54;5.70;;;5.10;;
34134;SDS011;20410;55.578;12.968;2023-12-14T02:26:20;5.33;;;4.83;;
34134;SDS011;20410;55.578;12.968;2023-12-14T02:28:46;5.73;;;5.03;;
34134;SDS011;20410;55.578;12.968;2023-12-14T02:31:11;5.00;;;4.50;;
34134;SDS011;20410;55.578;12.968;2023-12-14T02:33:37;5.20;;;4.70;;
34134;SDS011;20410;55.578;12.968;2023-12-14T02:36:03;4.90;;;4.20;;
34134;SDS011;20410;55.578;12.968;2023-12-14T02:38:29;6.20;;;4.97;;
34134;SDS011;20410;55.578;12.968;2023-12-14T02:40:55;5.07;;;4.57;;
34134;SDS011;20410;55.578;12.968;2023-12-14T02:43:20;5.17;;;4.67;;
34134;SDS011;20410;55.578;12.968;2023-12-14T02:45:46;4.40;;;3.93;;
34134;SDS011;20410;55.578;12.968;2023-12-14T02:48:11;5.40;;;4.90;;
34134;SDS011;20410;55.578;12.968;2023-12-14T02:50:37;4.70;;;4.30;;
34134;SDS011;20410;55.578;12.968;2023-12-14T02:53:03;5.40;;;4.90;;
34134;SDS011;20410;55.578;12.968;2023-12-14T02:55:28;4.80;;;4.30;;
34134;SDS011;20410;55.578;12.968;2023-12-14T02:57:54;5.97;;;4.37;;
34134;SDS011;20410;55.578;12.968;2023-12-14T03:00:19;6.83;;;5.50;;
34134;SDS011;20410;55.578;12.968;2023-12-14T03:02:45;5.30;;;4.80;;
34134;SDS011;20410;55.578;12.968;2023-12-14T03:05:11;5.50;;;5.00;;
34134;SDS011;20410;55.578;12.968;2023-12-14T03:07:36;5.80;;;5.13;;
34134;SDS011;20410;55.578;12.968;2023-12-14T03:10:02;5.57;;;4.90;;
34134;SDS011;20410;55.578;12.968;2023-12-14T03:12:28;5.50;;;5.00;;
34134;SDS011;20410;55.578;12.968;2023-12-14T03:14:54;5.57;;;5.07;;
34134;SDS011;20410;55.578;12.968;2023-12-14T03:17:19;5.40;;;4.90;;
34134;SDS011;20410;55.578;12.968;2023-12-14T03:19:45;5.27;;;4.77;;
34134;SDS011;20410;55.578;12.968;2023-12-14T03:22:11;6.53;;;4.97;;
34134;SDS011;20410;55.578;12.968;2023-12-14T03:24:36;5.93;;;4.80;;
34134;SDS011;20410;55.578;12.968;2023-12-14T03:27:02;5.17;;;4.67;;
34134;SDS011;20410;55.578;12.968;2023-12-14T03:29:28;4.80;;;4.40;;
34134;SDS011;20410;55.578;12.968;2023-12-14T03:31:57;5.20;;;4.70;;
34134;SDS011;20410;55.578;12.968;2023-12-14T03:34:23;4.57;;;4.00;;
34134;SDS011;20410;55.578;12.968;2023-12-14T03:36:49;5.10;;;4.60;;
34134;SDS011;20410;55.578;12.968;2023-12-14T03:39:15;5.10;;;4.60;;
34134;SDS011;20410;55.578;12.968;2023-12-14T03:41:41;5.77;;;5.10;;
34134;SDS011;20410;55.578;12.968;2023-12-14T03:44:08;5.27;;;4.77;;
34134;SDS011;20410;55.578;12.968;2023-12-14T03:46:33;5.30;;;4.80;;
34134;SDS011;20410;55.578;12.968;2023-12-14T03:48:59;5.73;;;5.23;;
34134;SDS011;20410;55.578;12.968;2023-12-14T03:51:25;6.00;;;5.43;;
34134;SDS011;20410;55.578;12.968;2023-12-14T03:53:51;5.93;;;4.60;;
34134;SDS011;20410;55.578;12.968;2023-12-14T03:56:16;5.83;;;4.97;;
34134;SDS011;20410;55.578;12.968;2023-12-14T03:58:42;5.43;;;4.93;;
34134;SDS011;20410;55.578;12.968;2023-12-14T04:01:07;5.40;;;4.90;;
34134;SDS011;20410;55.578;12.968;2023-12-14T04:03:33;5.20;;;4.70;;
34134;SDS011;20410;55.578;12.968;2023-12-14T04:05:58;5.33;;;4.40;;
34134;SDS011;20410;55.578;12.968;2023-12-14T04:08:24;5.63;;;5.13;;
34134;SDS011;20410;55.578;12.968;2023-12-14T04:10:49;5.70;;;5.07;;
34134;SDS011;20410;55.578;12.968;2023-12-14T04:13:15;5.33;;;4.83;;
34134;SDS011;20410;55.578;12.968;2023-12-14T04:15:41;5.20;;;4.70;;
34134;SDS011;20410;55.578;12.968;2023-12-14T04:18:07;5.67;;;5.10;;
34134;SDS011;20410;55.578;12.968;2023-12-14T04:20:33;5.67;;;5.17;;
34134;SDS011;20410;55.578;12.968;2023-12-14T04:22:59;5.00;;;4.50;;
34134;SDS011;20410;55.578;12.968;2023-12-14T04:25:24;5.10;;;4.60;;
34134;SDS011;20410;55.578;12.968;2023-12-14T04:27:50;4.97;;;4.47;;
34134;SDS011;20410;55.578;12.968;2023-12-14T04:30:15;5.43;;;4.93;;
34134;SDS011;20410;55.578;12.968;2023-12-14T04:32:41;5.50;;;5.00;;
34134;SDS011;20410;55.578;12.968;2023-12-14T04:35:07;5.53;;;4.90;;
34134;SDS011;20410;55.578;12.968;2023-12-14T04:37:32;5.23;;;4.73;;
34134;SDS011;20410;55.578;12.968;2023-12-14T04:39:59;5.17;;;4.67;;
34134;SDS011;20410;55.578;12.968;2023-12-14T04:42:24;5.43;;;4.93;;
34134;SDS011;20410;55.578;12.968;2023-12-14T04:44:50;5.00;;;4.50;;
34134;SDS011;20410;55.578;12.968;2023-12-14T04:47:15;5.07;;;4.57;;
34134;SDS011;20410;55.578;12.968;2023-12-14T04:49:41;4.97;;;4.47;;
34134;SDS011;20410;55.578;12.968;2023-12-14T04:52:07;5.30;;;4.77;;
34134;SDS011;20410;55.578;12.968;2023-12-14T04:54:32;6.13;;;5.53;;
34134;SDS011;20410;55.578;12.968;2023-12-14T04:57:00;5.23;;;4.63;;
34134;SDS011;20410;55.578;12.968;2023-12-14T04:59:26;5.17;;;4.67;;
34134;SDS011;20410;55.578;12.968;2023-12-14T05:01:51;4.97;;;4.47;;
34134;SDS011;20410;55.578;12.968;2023-12-14T05:04:17;5.17;;;4.67;;
34134;SDS011;20410;55.578;12.968;2023-12-14T05:06:42;5.30;;;4.80;;
34134;SDS011;20410;55.578;12.968;2023-12-14T05:09:08;4.97;;;4.53;;
34134;SDS011;20410;55.578;12.968;2023-12-14T05:11:36;5.10;;;4.60;;
34134;SDS011;20410;55.578;12.968;2023-12-14T05:14:04;5.40;;;4.87;;
34134;SDS011;20410;55.578;12.968;2023-12-14T05:16:29;4.47;;;4.07;;
34134;SDS011;20410;55.578;12.968;2023-12-14T05:18:55;4.90;;;4.43;;
34134;SDS011;20410;55.578;12.968;2023-12-14T05:21:22;4.87;;;4.17;;
34134;SDS011;20410;55.578;12.968;2023-12-14T05:23:48;4.60;;;4.20;;
34134;SDS011;20410;55.578;12.968;2023-12-14T05:26:13;5.70;;;5.20;;
34134;SDS011;20410;55.578;12.968;2023-12-14T05:28:40;4.83;;;4.43;;
34134;SDS011;20410;55.578;12.968;2023-12-14T05:31:05;5.20;;;4.70;;
34134;SDS011;20410;55.578;12.968;2023-12-14T05:33:31;5.20;;;4.70;;
34134;SDS011;20410;55.578;12.968;2023-12-14T05:36:01;4.57;;;4.17;;
34134;SDS011;20410;55.578;12.968;2023-12-14T05:38:26;5.27;;;4.77;;
34134;SDS011;20410;55.578;12.968;2023-12-14T05:40:52;5.03;;;4.53;;
34134;SDS011;20410;55.578;12.968;2023-12-14T05:43:17;6.13;;;4.53;;
34134;SDS011;20410;55.578;12.968;2023-12-14T05:45:43;5.43;;;4.83;;
34134;SDS011;20410;55.578;12.968;2023-12-14T05:48:08;4.93;;;4.43;;
34134;SDS011;20410;55.578;12.968;2023-12-14T05:50:34;5.20;;;4.70;;
34134;SDS011;20410;55.578;12.968;2023-12-14T05:52:59;5.07;;;4.57;;
34134;SDS011;20410;55.578;12.968;2023-12-14T05:55:25;5.00;;;4.53;;
34134;SDS011;20410;55.578;12.968;2023-12-14T05:57:50;4.67;;;4.20;;
34134;SDS011;20410;55.578;12.968;2023-12-14T06:00:17;5.43;;;4.80;;
34134;SDS011;20410;55.578;12.968;2023-12-14T06:02:43;6.63;;;5.20;;
34134;SDS011;20410;55.578;12.968;2023-12-14T06:05:08;5.07;;;4.57;;
34134;SDS011;20410;55.578;12.968;2023-12-14T06:07:34;6.47;;;4.50;;
34134;SDS011;20410;55.578;12.968;2023-12-14T06:10:00;5.10;;;4.53;;
34134;SDS011;20410;55.578;12.968;2023-12-14T06:12:26;6.23;;;5.23;;
34134;SDS011;20410;55.578;12.968;2023-12-14T06:14:52;6.07;;;4.10;;
34134;SDS011;20410;55.578;12.968;2023-12-14T06:17:17;6.20;;;4.70;;
34134;SDS011;20410;55.578;12.968;2023-12-14T06:19:43;5.07;;;4.57;;
34134;SDS011;20410;55.578;12.968;2023-12-14T06:22:09;5.13;;;4.67;;
34134;SDS011;20410;55.578;12.968;2023-12-14T06:24:34;4.80;;;4.30;;
34134;SDS011;20410;55.578;12.968;2023-12-14T06:27:00;5.13;;;4.07;;
34134;SDS011;20410;55.578;12.968;2023-12-14T06:29:25;5.00;;;4.27;;
34134;SDS011;20410;55.578;12.968;2023-12-14T06:31:51;5.93;;;4.67;;
34134;SDS011;20410;55.578;12.968;2023-12-14T06:34:17;4.87;;;4.37;;
34134;SDS011;20410;55.578;12.968;2023-12-14T06:36:43;5.57;;;4.30;;
34134;SDS011;20410;55.578;12.968;2023-12-14T06:39:10;6.37;;;4.33;;
34134;SDS011;20410;55.578;12.968;2023-12-14T06:41:36;5.70;;;3.93;;
34134;SDS011;20410;55.578;12.968;2023-12-14T06:44:02;5.07;;;4.30;;
34134;SDS011;20410;55.578;12.968;2023-12-14T06:46:27;5.47;;;4.40;;
34134;SDS011;20410;55.578;12.968;2023-12-14T06:48:53;4.93;;;4.43;;
34134;SDS011;20410;55.578;12.968;2023-12-14T06:51:20;5.10;;;4.60;;
34134;SDS011;20410;55.578;12.968;2023-12-14T06:53:49;4.40;;;4.00;;
34134;SDS011;20410;55.578;12.968;2023-12-14T06:56:14;5.10;;;4.60;;
34134;SDS011;20410;55.578;12.968;2023-12-14T06:58:41;4.53;;;4.13;;
34134;SDS011;20410;55.578;12.968;2023-12-14T07:01:10;5.83;;;4.37;;
34134;SDS011;20410;55.578;12.968;2023-12-14T07:03:40;4.60;;;4.20;;
34134;SDS011;20410;55.578;12.968;2023-12-14T07:06:07;5.20;;;4.40;;
34134;SDS011;20410;55.578;12.968;2023-12-14T07:08:36;5.60;;;4.13;;
34134;SDS011;20410;55.578;12.968;2023-12-14T07:11:01;6.20;;;4.40;;
34134;SDS011;20410;55.578;12.968;2023-12-14T07:13:27;5.20;;;4.40;;
34134;SDS011;20410;55.578;12.968;2023-12-14T07:15:52;8.43;;;4.40;;
34134;SDS011;20410;55.578;12.968;2023-12-14T07:18:18;4.77;;;4.23;;
34134;SDS011;20410;55.578;12.968;2023-12-14T07:20:43;6.23;;;4.73;;
34134;SDS011;20410;55.578;12.968;2023-12-14T07:23:09;5.07;;;4.57;;
34134;SDS011;20410;55.578;12.968;2023-12-14T07:25:34;4.70;;;4.20;;
34134;SDS011;20410;55.578;12.968;2023-12-14T07:28:00;4.70;;;4.20;;
34134;SDS011;20410;55.578;12.968;2023-12-14T07:30:26;6.53;;;4.27;;
34134;SDS011;20410;55.578;12.968;2023-12-14T07:32:51;5.50;;;4.13;;
34134;SDS011;20410;55.578;12.968;2023-12-14T07:35:17;5.10;;;3.70;;
34134;SDS011;20410;55.578;12.968;2023-12-14T07:37:43;6.23;;;4.37;;
34134;SDS011;20410;55.578;12.968;2023-12-14T07:40:08;4.87;;;3.93;;
34134;SDS011;20410;55.578;12.968;2023-12-14T07:42:34;5.50;;;3.83;;
34134;SDS011;20410;55.578;12.968;2023-12-14T07:45:00;4.50;;;4.00;;
34134;SDS011;20410;55.578;12.968;2023-12-14T07:47:25;4.60;;;3.77;;
34134;SDS011;20410;55.578;12.968;2023-12-14T07:49:51;4.50;;;3.50;;
34134;SDS011;20410;55.578;12.968;2023-12-14T07:52:16;5.47;;;4.20;;
34134;SDS011;20410;55.578;12.968;2023-12-14T07:54:42;5.23;;;3.97;;
34134;SDS011;20410;55.578;12.968;2023-12-14T07:57:07;7.13;;;4.10;;
34134;SDS011;20410;55.578;12.968;2023-12-14T07:59:33;5.60;;;3.87;;
34134;SDS011;20410;55.578;12.968;2023-12-14T08:01:58;4.67;;;4.20;;
34134;SDS011;20410;55.578;12.968;2023-12-14T08:04:24;4.40;;;3.90;;
34134;SDS011;20410;55.578;12.968;2023-12-14T08:06:49;4.60;;;4.20;;
34134;SDS011;20410;55.578;12.968;2023-12-14T08:09:15;7.03;;;3.90;;
34134;SDS011;20410;55.578;12.968;2023-12-14T08:11:41;5.57;;;3.60;;
34134;SDS011;20410;55.578;12.968;2023-12-14T08:14:06;4.30;;;3.87;;
34134;SDS011;20410;55.578;12.968;2023-12-14T08:16:32;4.47;;;4.07;;
34134;SDS011;20410;55.578;12.968;2023-12-14T08:18:57;5.63;;;3.43;;
34134;SDS011;20410;55.578;12.968;2023-12-14T08:21:23;4.03;;;3.67;;
34134;SDS011;20410;55.578;12.968;2023-12-14T08:23:49;4.30;;;3.90;;
34134;SDS011;20410;55.578;12.968;2023-12-14T08:26:14;4.73;;;4.07;;
34134;SDS011;20410;55.578;12.968;2023-12-14T08:28:40;6.50;;;4.00;;
34134;SDS011;20410;55.578;12.968;2023-12-14T08:31:05;4.20;;;3.80;;
34134;SDS011;20410;55.578;12.968;2023-12-14T08:33:31;4.43;;;3.90;;
34134;SDS011;20410;55.578;12.968;2023-12-14T08:35:57;4.30;;;3.90;;
34134;SDS011;20410;55.578;12.968;2023-12-14T08:38:23;5.43;;;3.83;;
34134;SDS011;20410;55.578;12.968;2023-12-14T08:40:49;6.33;;;3.87;;
34134;SDS011;20410;55.578;12.968;2023-12-14T08:43:15;4.33;;;3.87;;
34134;SDS011;20410;55.578;12.968;2023-12-14T08:45:41;5.33;;;4.07;;
34134;SDS011;20410;55.578;12.968;2023-12-14T08:48:07;4.40;;;3.57;;
34134;SDS011;20410;55.578;12.968;2023-12-14T08:50:32;3.77;;;3.30;;
34134;SDS011;20410;55.578;12.968;2023-12-14T08:52:58;4.90;;;4.10;;
34134;SDS011;20410;55.578;12.968;2023-12-14T08:55:24;5.90;;;4.03;;
34134;SDS011;20410;55.578;12.968;2023-12-14T08:57:50;5.00;;;4.43;;
34134;SDS011;20410;55.578;12.968;2023-12-14T09:00:16;5.70;;;4.73;;
34134;SDS011;20410;55.578;12.968;2023-12-14T09:02:42;5.47;;;4.30;;
34134;SDS011;20410;55.578;12.968;2023-12-14T09:05:11;4.80;;;4.27;;
34134;SDS011;20410;55.578;12.968;2023-12-14T09:07:37;5.57;;;4.70;;
34134;SDS011;20410;55.578;12.968;2023-12-14T09:10:03;6.10;;;4.60;;
34134;SDS011;20410;55.578;12.968;2023-12-14T09:12:29;5.23;;;4.27;;
34134;SDS011;20410;55.578;12.968;2023-12-14T09:14:55;5.50;;;4.77;;
34134;SDS011;20410;55.578;12.968;2023-12-14T09:17:20;5.90;;;4.07;;
34134;SDS011;20410;55.578;12.968;2023-12-14T09:19:46;4.47;;;4.07;;
34134;SDS011;20410;55.578;12.968;2023-12-14T09:22:12;4.87;;;4.20;;
34134;SDS011;20410;55.578;12.968;2023-12-14T09:24:37;4.87;;;4.33;;
34134;SDS011;20410;55.578;12.968;2023-12-14T09:27:03;6.00;;;4.00;;
34134;SDS011;20410;55.578;12.968;2023-12-14T09:29:28;5.00;;;4.50;;
34134;SDS011;20410;55.578;12.968;2023-12-14T09:31:54;6.10;;;4.60;;
34134;SDS011;20410;55.578;12.968;2023-12-14T09:34:19;4.00;;;3.53;;
34134;SDS011;20410;55.578;12.968;2023-12-14T09:36:45;4.57;;;4.17;;
34134;SDS011;20410;55.578;12.968;2023-12-14T09:39:10;5.60;;;3.87;;
34134;SDS011;20410;55.578;12.968;2023-12-14T09:41:37;5.10;;;4.00;;
34134;SDS011;20410;55.578;12.968;2023-12-14T09:44:04;7.07;;;4.17;;
34134;SDS011;20410;55.578;12.968;2023-12-14T09:46:31;5.37;;;4.87;;
34134;SDS011;20410;55.578;12.968;2023-12-14T09:49:01;4.30;;;3.57;;
34134;SDS011;20410;55.578;12.968;2023-12-14T09:51:28;4.67;;;4.27;;
34134;SDS011;20410;55.578;12.968;2023-12-14T09:53:53;4.47;;;4.07;;
34134;SDS011;20410;55.578;12.968;2023-12-14T09:56:23;5.13;;;4.63;;
34134;SDS011;20410;55.578;12.968;2023-12-14T09:58:50;5.13;;;4.63;;
34134;SDS011;20410;55.578;12.968;2023-12-14T10:01:25;4.97;;;4.40;;
34134;SDS011;20410;55.578;12.968;2023-12-14T10:06:37;7.27;;;4.80;;
34134;SDS011;20410;55.578;12.968;2023-12-14T10:09:03;4.43;;;4.03;;
34134;SDS011;20410;55.578;12.968;2023-12-14T10:11:30;4.87;;;4.03;;
34134;SDS011;20410;55.578;12.968;2023-12-14T10:13:55;4.13;;;3.50;;
34134;SDS011;20410;55.578;12.968;2023-12-14T10:16:27;4.63;;;3.70;;
34134;SDS011;20410;55.578;12.968;2023-12-14T10:18:58;5.00;;;3.37;;
34134;SDS011;20410;55.578;12.968;2023-12-14T10:21:25;4.20;;;3.63;;
34134;SDS011;20410;55.578;12.968;2023-12-14T10:23:52;4.73;;;3.97;;
34134;SDS011;20410;55.578;12.968;2023-12-14T10:26:21;4.40;;;3.70;;
34134;SDS011;20410;55.578;12.968;2023-12-14T10:28:51;4.83;;;3.57;;
34134;SDS011;20410;55.578;12.968;2023-12-14T10:31:20;5.20;;;4.50;;
34134;SDS011;20410;55.578;12.968;2023-12-14T10:33:46;4.27;;;3.80;;
34134;SDS011;20410;55.578;12.968;2023-12-14T10:36:22;5.33;;;4.83;;
34134;SDS011;20410;55.578;12.968;2023-12-14T10:38:52;4.77;;;4.27;;
34134;SDS011;20410;55.578;12.968;2023-12-14T10:41:18;8.23;;;3.83;;
34134;SDS011;20410;55.578;12.968;2023-12-14T10:43:47;5.67;;;4.00;;
34134;SDS011;20410;55.578;12.968;2023-12-14T10:46:13;4.80;;;3.93;;
34134;SDS011;20410;55.578;12.968;2023-12-14T10:48:40;4.03;;;3.63;;
34134;SDS011;20410;55.578;12.968;2023-12-14T10:51:08;7.50;;;3.77;;
34134;SDS011;20410;55.578;12.968;2023-12-14T10:53:36;5.40;;;3.43;;
34134;SDS011;20410;55.578;12.968;2023-12-14T10:56:03;5.67;;;3.77;;
34134;SDS011;20410;55.578;12.968;2023-12-14T10:58:44;4.70;;;4.03;;
34134;SDS011;20410;55.578;12.968;2023-12-14T11:01:13;5.33;;;3.63;;
34134;SDS011;20410;55.578;12.968;2023-12-14T11:03:40;5.00;;;3.70;;
34134;SDS011;20410;55.578;12.968;2023-12-14T11:06:20;5.20;;;3.83;;
34134;SDS011;20410;55.578;12.968;2023-12-14T11:09:00;4.40;;;4.00;;
34134;SDS011;20410;55.578;12.968;2023-12-14T11:11:42;5.00;;;3.80;;
34134;SDS011;20410;55.578;12.968;2023-12-14T11:14:29;5.00;;;4.20;;
34134;SDS011;20410;55.578;12.968;2023-12-14T11:16:55;4.23;;;3.70;;
34134;SDS011;20410;55.578;12.968;2023-12-14T11:19:26;4.13;;;3.43;;
34134;SDS011;20410;55.578;12.968;2023-12-14T11:24:22;4.40;;;3.30;;
34134;SDS011;20410;55.578;12.968;2023-12-14T11:26:51;4.37;;;3.33;;
34134;SDS011;20410;55.578;12.968;2023-12-14T11:29:19;4.47;;;3.60;;
34134;SDS011;20410;55.578;12.968;2023-12-14T11:31:46;4.07;;;3.50;;
34134;SDS011;20410;55.578;12.968;2023-12-14T11:34:13;4.13;;;3.40;;
34134;SDS011;20410;55.578;12.968;2023-12-14T11:36:40;4.30;;;3.10;;
34134;SDS011;20410;55.578;12.968;2023-12-14T11:39:09;3.43;;;3.13;;
34134;SDS011;20410;55.578;12.968;2023-12-14T11:41:36;4.30;;;3.03;;
34134;SDS011;20410;55.578;12.968;2023-12-14T11:44:03;7.03;;;3.30;;
34134;SDS011;20410;55.578;12.968;2023-12-14T11:46:29;5.80;;;3.73;;
34134;SDS011;20410;55.578;12.968;2023-12-14T11:48:56;6.03;;;3.53;;
34134;SDS011;20410;55.578;12.968;2023-12-14T11:51:22;3.03;;;2.80;;
34134;SDS011;20410;55.578;12.968;2023-12-14T11:53:48;6.97;;;3.70;;
34134;SDS011;20410;55.578;12.968;2023-12-14T11:56:16;4.63;;;3.13;;
34134;SDS011;20410;55.578;12.968;2023-12-14T11:58:43;3.53;;;2.80;;
34134;SDS011;20410;55.578;12.968;2023-12-14T12:01:16;3.50;;;3.20;;
34134;SDS011;20410;55.578;12.968;2023-12-14T12:03:42;4.30;;;2.93;;
34134;SDS011;20410;55.578;12.968;2023-12-14T12:06:09;3.00;;;2.70;;
34134;SDS011;20410;55.578;12.968;2023-12-14T12:08:45;5.07;;;3.00;;
34134;SDS011;20410;55.578;12.968;2023-12-14T12:11:11;4.07;;;3.70;;
34134;SDS011;20410;55.578;12.968;2023-12-14T12:13:42;3.20;;;2.90;;
34134;SDS011;20410;55.578;12.968;2023-12-14T12:16:07;3.20;;;2.90;;
34134;SDS011;20410;55.578;12.968;2023-12-14T12:18:33;4.27;;;3.20;;
34134;SDS011;20410;55.578;12.968;2023-12-14T12:20:58;6.03;;;3.07;;
34134;SDS011;20410;55.578;12.968;2023-12-14T12:23:28;3.37;;;2.97;;
34134;SDS011;20410;55.578;12.968;2023-12-14T12:25:54;3.00;;;2.70;;
34134;SDS011;20410;55.578;12.968;2023-12-14T12:28:20;3.07;;;2.77;;
34134;SDS011;20410;55.578;12.968;2023-12-14T12:30:47;3.77;;;3.27;;
34134;SDS011;20410;55.578;12.968;2023-12-14T12:33:12;4.10;;;2.77;;
34134;SDS011;20410;55.578;12.968;2023-12-14T12:35:38;3.93;;;3.10;;
34134;SDS011;20410;55.578;12.968;2023-12-14T12:38:03;7.47;;;3.03;;
34134;SDS011;20410;55.578;12.968;2023-12-14T12:40:29;5.57;;;3.03;;
34134;SDS011;20410;55.578;12.968;2023-12-14T12:42:58;5.03;;;3.07;;
34134;SDS011;20410;55.578;12.968;2023-12-14T12:45:24;3.63;;;2.70;;
34134;SDS011;20410;55.578;12.968;2023-12-14T12:47:53;2.90;;;2.63;;
34134;SDS011;20410;55.578;12.968;2023-12-14T12:50:18;3.60;;;3.30;;
34134;SDS011;20410;55.578;12.968;2023-12-14T12:52:44;4.33;;;3.50;;
34134;SDS011;20410;55.578;12.968;2023-12-14T12:55:13;4.17;;;3.50;;
34134;SDS011;20410;55.578;12.968;2023-12-14T12:57:39;3.47;;;3.13;;
34134;SDS011;20410;55.578;12.968;2023-12-14T13:00:06;3.63;;;3.17;;
34134;SDS011;20410;55.578;12.968;2023-12-14T13:02:36;3.57;;;3.17;;
34134;SDS011;20410;55.578;12.968;2023-12-14T13:05:02;4.00;;;3.60;;
34134;SDS011;20410;55.578;12.968;2023-12-14T13:07:29;3.43;;;3.13;;
34134;SDS011;20410;55.578;12.968;2023-12-14T13:09:54;6.43;;;3.10;;
34134;SDS011;20410;55.578;12.968;2023-12-14T13:12:20;3.83;;;3.30;;
34134;SDS011;20410;55.578;12.968;2023-12-14T13:14:46;4.27;;;2.77;;
34134;SDS011;20410;55.578;12.968;2023-12-14T13:17:11;3.77;;;2.80;;
34134;SDS011;20410;55.578;12.968;2023-12-14T13:19:37;7.93;;;3.17;;
34134;SDS011;20410;55.578;12.968;2023-12-14T13:22:02;4.57;;;3.17;;
34134;SDS011;20410;55.578;12.968;2023-12-14T13:24:28;5.47;;;3.10;;
34134;SDS011;20410;55.578;12.968;2023-12-14T13:26:54;7.10;;;2.93;;
34134;SDS011;20410;55.578;12.968;2023-12-14T13:29:20;4.47;;;3.03;;
34134;SDS011;20410;55.578;12.968;2023-12-14T13:31:45;4.57;;;2.37;;
34134;SDS011;20410;55.578;12.968;2023-12-14T13:34:12;4.33;;;3.30;;
34134;SDS011;20410;55.578;12.968;2023-12-14T13:36:38;5.40;;;3.33;;
34134;SDS011;20410;55.578;12.968;2023-12-14T13:39:03;5.00;;;2.70;;
34134;SDS011;20410;55.578;12.968;2023-12-14T13:41:29;4.07;;;3.07;;
34134;SDS011;20410;55.578;12.968;2023-12-14T13:43:58;4.07;;;3.30;;
34134;SDS011;20410;55.578;12.968;2023-12-14T13:46:24;5.93;;;3.00;;
34134;SDS011;20410;55.578;12.968;2023-12-14T13:48:50;3.37;;;2.87;;
34134;SDS011;20410;55.578;12.968;2023-12-14T13:51:15;13.83;;;4.17;;
34134;SDS011;20410;55.578;12.968;2023-12-14T13:53:41;4.27;;;3.33;;
34134;SDS011;20410;55.578;12.968;2023-12-14T13:56:06;5.40;;;3.60;;
34134;SDS011;20410;55.578;12.968;2023-12-14T13:58:32;4.80;;;3.40;;
34134;SDS011;20410;55.578;12.968;2023-12-14T14:01:02;4.03;;;3.30;;
34134;SDS011;20410;55.578;12.968;2023-12-14T14:03:27;4.43;;;3.70;;
34134;SDS011;20410;55.578;12.968;2023-12-14T14:05:53;8.47;;;4.57;;
34134;SDS011;20410;55.578;12.968;2023-12-14T14:08:18;6.23;;;3.27;;
34134;SDS011;20410;55.578;12.968;2023-12-14T14:10:45;6.53;;;3.27;;
34134;SDS011;20410;55.578;12.968;2023-12-14T14:13:10;8.07;;;3.57;;
34134;SDS011;20410;55.578;12.968;2023-12-14T14:15:36;5.00;;;3.07;;
34134;SDS011;20410;55.578;12.968;2023-12-14T14:18:01;3.70;;;3.10;;
34134;SDS011;20410;55.578;12.968;2023-12-14T14:20:27;4.53;;;3.00;;
34134;SDS011;20410;55.578;12.968;2023-12-14T14:22:53;7.73;;;3.23;;
34134;SDS011;20410;55.578;12.968;2023-12-14T14:25:18;5.43;;;3.27;;
34134;SDS011;20410;55.578;12.968;2023-12-14T14:27:44;3.20;;;2.90;;
34134;SDS011;20410;55.578;12.968;2023-12-14T14:30:12;3.53;;;2.83;;
34134;SDS011;20410;55.578;12.968;2023-12-14T14:32:38;3.73;;;3.43;;